首页
METAR-TAF:

METAR-TAF

机场 :

朱諾, 阿拉斯加州, 美国

纬度: 58-21-17N, 经度: 134-34-34W, 海拔: 6米

当前天气观测

该预报发布于31分钟前的08:00 UTC
静风
温度 10°C
湿度 93%
气压 1012 hPa
能見度: 12.9公里
散云层高于200英尺
散云层高于700英尺
多云层高于3800英尺

METAR: PAJN 190800Z 00000KT 8SM SCT002 SCT007 BKN038 10/09 A2987 RMK AO2 T01000094

时间: 00:31 (08:31 UTC)

预报

该预报发布于2小时和53分钟前的05:38 UTC
预报有效从19日的 06点(UTC)到 20日的 06点(UTC)
风速3节,风向多变
能見度: 10公里
少量云层高于400英尺
多云层高于5000英尺
碎片雾
短暂存在
从 19日的 06点(UTC)到 19日的 10点(UTC)
能見度: 6.4公里
散云层高于200英尺
多云层高于1000英尺
小雨, 轻雾
从 19日的 1800点(UTC)
风速4节,风向
能見度: 10公里
少量云层高于400英尺
多云层高于2500英尺
小雨

TAF: PAJN 190538Z 1906/2006 VRB03KT P6SM BCFG FEW004 BKN050 TEMPO 1906/1910 4SM -RA BR SCT002 BKN010 FM191800 10004KT P6SM -RA FEW004 BKN025

超过4000个机场的气象观测和天气预报(METAR&TAF报告)。

可查询的气象台以黄色和红色小点在地图上表示。

将鼠标移到小点上方,可查看气象台名称。

然后点击查看天气观测和预报。

如需切换地图:点击带黑十字的绿色按钮放大地图;点击带横线的绿色按钮缩小地图;或者点击绿色箭头查看邻近地区的地图。


METAR-TAF: